createdAt,value
2022-08-05T00:04:29.991Z,16.62
2022-08-05T00:09:34.692Z,16.64
2022-08-05T00:14:37.300Z,16.75
2022-08-05T00:19:45.604Z,16.80
2022-08-05T00:24:59.427Z,16.85
2022-08-05T00:30:04.562Z,16.95
2022-08-05T00:35:08.436Z,16.95
2022-08-05T00:40:13.747Z,16.94
2022-08-05T00:45:28.413Z,16.94
2022-08-05T00:50:44.264Z,16.94
2022-08-05T00:55:50.697Z,16.95
2022-08-05T01:00:53.267Z,16.96
2022-08-05T01:05:56.594Z,16.93
2022-08-05T01:11:03.745Z,16.89
2022-08-05T01:16:11.293Z,16.94
2022-08-05T01:21:25.575Z,16.90
2022-08-05T01:26:55.427Z,16.85
2022-08-05T01:32:03.202Z,16.87
2022-08-05T01:37:10.604Z,16.91
2022-08-05T01:42:28.771Z,16.93
2022-08-05T01:47:38.994Z,16.91
2022-08-05T01:52:44.946Z,16.95
2022-08-05T01:58:10.298Z,16.99
2022-08-05T02:03:31.389Z,17.01
2022-08-05T02:08:40.879Z,17.01
2022-08-05T02:14:12.664Z,17.04
2022-08-05T02:19:25.588Z,17.01
2022-08-05T02:24:41.079Z,17.00
2022-08-05T02:29:58.477Z,17.06
2022-08-05T02:35:13.333Z,17.08
2022-08-05T02:40:18.097Z,17.04
2022-08-05T02:45:23.810Z,17.03
2022-08-05T02:50:30.218Z,17.01
2022-08-05T02:55:54.399Z,16.98
2022-08-05T03:00:57.508Z,17.01
2022-08-05T03:06:55.389Z,16.99
2022-08-05T03:11:57.543Z,16.97
2022-08-05T03:16:49.254Z,17.04
2022-08-05T03:21:55.714Z,16.98
2022-08-05T03:26:58.880Z,16.95
2022-08-05T03:32:01.767Z,16.95
2022-08-05T03:37:07.352Z,16.88
2022-08-05T03:42:12.862Z,16.93
2022-08-05T03:47:15.493Z,16.91
2022-08-05T03:52:38.457Z,16.85
2022-08-05T03:57:49.666Z,16.84
2022-08-05T04:02:59.016Z,16.83
2022-08-05T04:08:05.541Z,16.84
2022-08-05T04:13:08.709Z,16.78
2022-08-05T04:18:20.549Z,16.83
2022-08-05T04:23:57.272Z,16.84
2022-08-05T04:28:52.235Z,16.81
2022-08-05T04:34:31.401Z,16.73
2022-08-05T04:39:18.857Z,16.69
2022-08-05T04:44:30.006Z,16.69
2022-08-05T04:49:38.427Z,16.73
2022-08-05T04:54:57.939Z,16.77
2022-08-05T05:00:01.484Z,16.83
2022-08-05T05:05:04.183Z,16.91
2022-08-05T05:10:29.641Z,16.93
2022-08-05T05:15:57.320Z,16.87
2022-08-05T05:20:56.113Z,16.94
2022-08-05T05:26:02.512Z,16.90
2022-08-05T05:31:05.626Z,16.88
2022-08-05T05:36:11.444Z,16.93
2022-08-05T05:41:18.597Z,16.97
2022-08-05T05:46:21.883Z,17.02
2022-08-05T05:51:49.870Z,17.12
2022-08-05T05:56:54.723Z,17.30
2022-08-05T06:01:58.191Z,17.38
2022-08-05T06:07:01.689Z,17.46
2022-08-05T06:12:06.395Z,17.54
2022-08-05T06:17:22.513Z,17.63
2022-08-05T06:22:28.594Z,17.62
2022-08-05T06:28:11.728Z,17.74
2022-08-05T06:32:55.604Z,17.75
2022-08-05T06:38:00.958Z,17.73
2022-08-05T06:43:58.092Z,17.80
2022-08-05T06:48:54.609Z,17.74
2022-08-05T06:53:53.798Z,17.75
2022-08-05T06:58:57.791Z,17.83
2022-08-05T07:04:01.275Z,18.24
2022-08-05T07:09:04.654Z,18.52
2022-08-05T07:14:29.312Z,18.81
2022-08-05T07:24:55.871Z,19.34
2022-08-05T07:30:24.441Z,19.57
2022-08-05T07:36:01.813Z,19.23
2022-08-05T07:40:45.474Z,19.24
2022-08-05T07:45:59.444Z,19.44
2022-08-05T07:51:04.411Z,19.34
2022-08-05T07:57:00.063Z,19.28
2022-08-05T08:01:52.495Z,19.26
2022-08-05T08:07:00.910Z,19.34
2022-08-05T08:12:19.980Z,19.36
2022-08-05T08:17:32.508Z,19.79
2022-08-05T08:22:35.232Z,20.09
2022-08-05T08:27:44.844Z,20.39
2022-08-05T08:32:51.210Z,20.69
2022-08-05T08:37:56.316Z,20.80
2022-08-05T08:44:57.883Z,21.05
2022-08-05T08:49:02.987Z,21.11
2022-08-05T08:53:49.838Z,21.48
2022-08-05T08:58:52.552Z,21.46
2022-08-05T09:03:57.547Z,21.41
2022-08-05T09:09:02.790Z,22.01
2022-08-05T09:14:54.042Z,21.97
2022-08-05T09:19:36.761Z,23.78
2022-08-05T09:24:59.297Z,23.61
2022-08-05T09:30:06.434Z,24.36
2022-08-05T09:35:26.465Z,24.73
2022-08-05T09:40:32.346Z,24.68
2022-08-05T09:46:07.570Z,23.96
2022-08-05T09:51:02.971Z,22.94
2022-08-05T09:56:13.046Z,22.23
2022-08-05T10:01:31.990Z,22.08
2022-08-05T10:06:36.601Z,21.88
2022-08-05T10:11:39.267Z,22.60
2022-08-05T10:16:53.089Z,24.43
2022-08-05T10:21:57.322Z,25.83
2022-08-05T10:27:01.431Z,26.60
2022-08-05T10:32:51.521Z,24.05
2022-08-05T10:37:41.313Z,23.57
2022-08-05T10:42:51.685Z,26.68
2022-08-05T10:48:29.232Z,25.15
2022-08-05T10:53:38.255Z,24.11
2022-08-05T10:59:03.951Z,24.77
2022-08-05T11:04:17.325Z,25.20
2022-08-05T11:09:39.066Z,24.56
2022-08-05T11:15:01.506Z,25.54
2022-08-05T11:20:34.206Z,26.12
2022-08-05T11:26:04.343Z,26.49
2022-08-05T11:31:57.148Z,26.52
2022-08-05T11:36:52.589Z,25.95
2022-08-05T11:42:02.260Z,25.84
2022-08-05T11:47:10.908Z,25.92
2022-08-05T11:52:24.484Z,26.68
2022-08-05T11:58:08.002Z,26.39
2022-08-05T12:02:56.586Z,26.38
2022-08-05T12:08:07.901Z,25.61
2022-08-05T12:13:27.636Z,24.22
2022-08-05T12:18:39.722Z,26.37
2022-08-05T12:24:00.096Z,26.36
2022-08-05T12:29:14.408Z,25.42
2022-08-05T12:34:23.477Z,24.59
2022-08-05T12:39:37.610Z,23.68
2022-08-05T12:44:44.337Z,25.03
2022-08-05T12:50:04.098Z,25.59
2022-08-05T12:55:22.602Z,25.17
2022-08-05T13:02:03.859Z,24.87
2022-08-05T13:05:52.574Z,24.96
2022-08-05T13:11:00.713Z,24.82
2022-08-05T13:16:12.378Z,24.60
2022-08-05T13:21:19.383Z,24.42
2022-08-05T13:26:27.214Z,24.77
2022-08-05T13:32:04.966Z,24.63
2022-08-05T13:36:56.836Z,24.85
2022-08-05T13:41:59.700Z,24.47
2022-08-05T13:47:08.838Z,24.33
2022-08-05T13:52:13.218Z,24.95
2022-08-05T13:57:16.340Z,25.30
2022-08-05T14:02:20.665Z,25.43
2022-08-05T14:08:00.611Z,24.62
2022-08-05T14:12:54.496Z,24.95
2022-08-05T14:17:59.840Z,24.70
2022-08-05T14:23:03.530Z,24.95
2022-08-05T14:28:06.095Z,23.12
2022-08-05T14:33:10.524Z,21.96
2022-08-05T14:38:32.242Z,22.73
2022-08-05T14:43:51.818Z,23.29
2022-08-05T14:49:07.400Z,23.96
2022-08-05T14:54:28.753Z,23.27
2022-08-05T14:59:35.725Z,22.59
2022-08-05T15:04:39.764Z,22.35
2022-08-05T15:09:52.749Z,23.23
2022-08-05T15:14:57.881Z,24.25
2022-08-05T15:20:01.815Z,23.71
2022-08-05T15:25:13.748Z,22.82
2022-08-05T15:30:17.318Z,22.63
2022-08-05T15:35:21.806Z,23.51
2022-08-05T15:41:00.836Z,23.72
2022-08-05T15:45:47.440Z,23.41
2022-08-05T15:50:51.443Z,23.72
2022-08-05T15:56:02.743Z,23.73
2022-08-05T16:01:17.079Z,23.96
2022-08-05T16:06:23.121Z,23.80
2022-08-05T16:11:42.884Z,23.38
2022-08-05T16:16:47.231Z,23.32
2022-08-05T16:22:01.133Z,23.14
2022-08-05T16:27:07.412Z,23.14
2022-08-05T16:32:10.314Z,23.16
2022-08-05T16:38:02.422Z,23.55
2022-08-05T16:42:37.309Z,23.70
2022-08-05T16:47:53.553Z,23.21
2022-08-05T16:53:01.637Z,22.34
2022-08-05T16:58:15.571Z,22.27
2022-08-05T17:03:22.722Z,21.46
2022-08-05T17:08:33.597Z,21.24
2022-08-05T17:13:46.215Z,21.37
2022-08-05T17:18:48.816Z,21.47
2022-08-05T17:24:06.031Z,21.49
2022-08-05T17:29:15.447Z,21.26
2022-08-05T17:34:18.223Z,20.56
2022-08-05T17:39:23.755Z,20.32
2022-08-05T17:44:32.720Z,19.89
2022-08-05T17:49:59.715Z,19.63
2022-08-05T17:54:59.728Z,19.24
2022-08-05T18:00:05.345Z,18.94
2022-08-05T18:05:09.668Z,18.65
2022-08-05T18:10:21.411Z,18.44
2022-08-05T18:15:27.047Z,18.16
2022-08-05T18:20:31.960Z,17.97
2022-08-05T18:25:36.441Z,17.82
2022-08-05T18:30:41.794Z,17.67
2022-08-05T18:36:00.095Z,17.52
2022-08-05T18:41:56.161Z,17.37
2022-08-05T18:46:31.443Z,17.19
2022-08-05T18:52:05.715Z,17.03
2022-08-05T18:57:15.537Z,16.80
2022-08-05T19:02:36.488Z,16.65
2022-08-05T19:07:42.342Z,16.47
2022-08-05T19:12:49.698Z,16.26
2022-08-05T19:18:08.532Z,16.06
2022-08-05T19:24:04.397Z,15.82
2022-08-05T19:28:36.554Z,15.68
2022-08-05T19:33:40.607Z,15.54
2022-08-05T19:38:51.290Z,15.32
2022-08-05T19:44:06.630Z,15.27
2022-08-05T19:49:16.798Z,15.22
2022-08-05T19:54:26.799Z,15.07
2022-08-05T20:00:00.198Z,14.93
2022-08-05T20:04:58.747Z,14.78
2022-08-05T20:10:02.396Z,14.72
2022-08-05T20:15:23.012Z,14.56
2022-08-05T20:20:38.996Z,14.35
2022-08-05T20:25:42.008Z,14.19
2022-08-05T20:30:45.866Z,14.05
2022-08-05T20:35:50.483Z,13.86
2022-08-05T20:40:52.976Z,13.72
2022-08-05T20:46:00.381Z,13.54
2022-08-05T20:51:08.351Z,13.42
2022-08-05T20:56:11.000Z,13.26
2022-08-05T21:01:14.872Z,13.24
2022-08-05T21:06:28.591Z,13.16
2022-08-05T21:12:09.066Z,13.04
2022-08-05T21:16:56.982Z,12.87
2022-08-05T21:21:59.527Z,12.72
2022-08-05T21:27:02.167Z,12.60
2022-08-05T21:32:07.080Z,12.49
2022-08-05T21:37:09.682Z,12.39
2022-08-05T21:42:30.788Z,12.26
2022-08-05T21:47:56.100Z,12.10
2022-08-05T21:53:04.546Z,11.98
2022-08-05T21:58:11.658Z,11.88
2022-08-05T22:03:15.703Z,11.76
2022-08-05T22:08:24.158Z,11.65
2022-08-05T22:14:31.256Z,11.52
2022-08-05T22:18:52.798Z,11.40
2022-08-05T22:24:40.301Z,11.33
2022-08-05T22:29:35.763Z,11.35
2022-08-05T22:34:39.631Z,11.33
2022-08-05T22:39:43.227Z,11.30
2022-08-05T22:44:48.580Z,11.27
2022-08-05T22:50:20.443Z,11.28
2022-08-05T22:55:24.789Z,11.21
2022-08-05T23:00:29.222Z,11.07
2022-08-05T23:05:36.157Z,10.96
2022-08-05T23:10:38.817Z,10.93
2022-08-05T23:15:41.522Z,10.93
2022-08-05T23:20:46.866Z,10.89
2022-08-05T23:25:55.450Z,10.75
2022-08-05T23:31:07.042Z,10.64
2022-08-05T23:36:28.233Z,10.60
2022-08-05T23:41:34.287Z,10.61
2022-08-05T23:46:40.298Z,10.57
2022-08-05T23:52:03.375Z,10.52
2022-08-05T23:57:08.963Z,10.48
